createdAt,value
2019-03-24T00:07:39.148Z,61.49
2019-03-24T00:13:12.304Z,61.79
2019-03-24T00:15:42.944Z,61.60
2019-03-24T00:18:13.587Z,61.45
2019-03-24T00:20:44.241Z,62.01
2019-03-24T00:23:14.911Z,62.07
2019-03-24T00:25:45.574Z,61.52
2019-03-24T00:28:16.293Z,61.84
2019-03-24T00:30:46.981Z,61.00
2019-03-24T00:33:19.230Z,61.27
2019-03-24T00:35:49.909Z,61.57
2019-03-24T00:38:20.551Z,61.67
2019-03-24T00:40:51.195Z,61.56
2019-03-24T00:43:21.819Z,62.02
2019-03-24T00:45:52.461Z,61.96
2019-03-24T00:48:23.095Z,62.05
2019-03-24T00:50:53.714Z,62.16
2019-03-24T00:53:24.367Z,61.80
2019-03-24T00:55:54.991Z,62.29
2019-03-24T00:58:25.617Z,62.26
2019-03-24T01:00:56.278Z,61.58
2019-03-24T01:03:26.920Z,61.78
2019-03-24T01:05:57.560Z,61.36
2019-03-24T01:08:28.222Z,61.52
2019-03-24T01:10:59.110Z,61.44
2019-03-24T01:13:29.851Z,62.20
2019-03-24T01:16:00.492Z,61.93
2019-03-24T01:18:31.147Z,62.26
2019-03-24T01:21:01.779Z,62.15
2019-03-24T01:23:34.036Z,62.04
2019-03-24T01:26:04.739Z,61.28
2019-03-24T01:38:26.267Z,62.35
2019-03-24T01:40:56.904Z,62.87
2019-03-24T01:43:27.562Z,62.70
2019-03-24T01:45:59.019Z,62.56
2019-03-24T01:48:48.275Z,62.47
2019-03-24T02:04:05.078Z,61.83
2019-03-24T02:06:35.709Z,62.62
2019-03-24T02:12:15.006Z,62.40
2019-03-24T02:14:45.646Z,61.67
2019-03-24T02:17:16.276Z,61.87
2019-03-24T02:19:46.931Z,61.71
2019-03-24T02:22:17.574Z,61.57
2019-03-24T02:24:48.206Z,60.51
2019-03-24T02:27:18.848Z,61.47
2019-03-24T02:29:49.491Z,62.07
2019-03-24T02:32:20.124Z,61.74
2019-03-24T02:34:50.787Z,61.64
2019-03-24T02:40:04.267Z,61.13
2019-03-24T02:42:34.945Z,61.27
2019-03-24T02:45:26.005Z,61.52
2019-03-24T02:47:56.660Z,61.33
2019-03-24T02:50:27.295Z,61.26
2019-03-24T02:52:57.964Z,61.23
2019-03-24T02:55:28.586Z,61.03
2019-03-24T02:57:59.308Z,61.68
2019-03-24T03:00:29.938Z,62.13
2019-03-24T03:03:00.604Z,62.33
2019-03-24T03:05:31.253Z,62.37
2019-03-24T03:08:01.894Z,62.33
2019-03-24T03:10:32.533Z,61.67
2019-03-24T03:13:03.185Z,62.26
2019-03-24T03:15:33.830Z,61.78
2019-03-24T03:18:04.576Z,62.66
2019-03-24T03:23:42.682Z,62.48
2019-03-24T03:26:13.371Z,62.78
2019-03-24T03:28:44.109Z,62.36
2019-03-24T03:31:20.630Z,62.76
2019-03-24T03:33:51.334Z,62.94
2019-03-24T03:36:22.001Z,62.87
2019-03-24T03:42:09.233Z,62.91
2019-03-24T03:50:18.677Z,63.47
2019-03-24T03:52:49.343Z,63.80
2019-03-24T03:55:38.780Z,63.63
2019-03-24T03:58:09.417Z,63.52
2019-03-24T04:00:40.105Z,63.10
2019-03-24T04:03:10.745Z,62.86
2019-03-24T04:05:41.431Z,63.06
2019-03-24T04:08:12.091Z,62.48
2019-03-24T04:10:42.741Z,62.92
2019-03-24T04:13:13.384Z,63.27
2019-03-24T04:15:44.026Z,63.55
2019-03-24T04:18:14.663Z,63.06
2019-03-24T04:20:45.302Z,63.78
2019-03-24T04:23:17.553Z,63.71
2019-03-24T04:25:48.196Z,63.74
2019-03-24T04:28:18.853Z,63.53
2019-03-24T04:30:49.889Z,63.70
2019-03-24T04:33:20.534Z,63.20
2019-03-24T04:35:51.339Z,62.85
2019-03-24T04:38:22.053Z,62.60
2019-03-24T04:40:52.727Z,62.78
2019-03-24T04:43:23.357Z,62.73
2019-03-24T04:45:54.017Z,63.32
2019-03-24T04:48:24.673Z,63.54
2019-03-24T04:50:55.337Z,63.32
2019-03-24T04:53:26.011Z,63.24
2019-03-24T04:55:56.676Z,62.73
2019-03-24T04:58:27.306Z,63.02
2019-03-24T05:00:57.947Z,62.91
2019-03-24T05:03:28.588Z,63.64
2019-03-24T05:05:59.240Z,63.12
2019-03-24T05:12:00.413Z,63.46
2019-03-24T05:14:31.123Z,62.98
2019-03-24T05:20:13.966Z,63.09
2019-03-24T05:22:44.611Z,62.86
2019-03-24T05:25:15.309Z,62.55
2019-03-24T05:27:45.958Z,62.55
2019-03-24T05:30:18.263Z,62.00
2019-03-24T05:35:31.693Z,60.99
2019-03-24T05:38:02.353Z,60.95
2019-03-24T05:43:55.672Z,60.23
2019-03-24T05:46:26.309Z,60.31
2019-03-24T05:49:19.567Z,59.88
2019-03-24T05:55:13.062Z,59.17
2019-03-24T06:18:08.266Z,55.83
2019-03-24T06:20:57.642Z,56.07
2019-03-24T06:23:28.292Z,54.47
2019-03-24T06:25:58.933Z,54.89
2019-03-24T06:32:18.278Z,53.25
2019-03-24T06:44:50.990Z,52.63
2019-03-24T06:47:21.652Z,52.80
2019-03-24T06:49:52.321Z,51.67
2019-03-24T06:52:23.052Z,51.15
2019-03-24T06:54:55.443Z,50.36
2019-03-24T06:57:26.090Z,51.20
2019-03-24T06:59:56.746Z,50.58
2019-03-24T07:02:27.396Z,49.55
2019-03-24T07:04:58.948Z,49.19
2019-03-24T07:07:29.605Z,48.75
2019-03-24T07:10:00.433Z,48.59
2019-03-24T07:12:31.001Z,48.26
2019-03-24T07:15:01.640Z,48.38
2019-03-24T07:17:32.373Z,48.19
2019-03-24T07:20:03.115Z,47.90
2019-03-24T07:22:33.752Z,47.85
2019-03-24T07:25:04.542Z,47.45
2019-03-24T07:27:35.209Z,46.46
2019-03-24T07:33:00.203Z,46.02
2019-03-24T07:35:30.840Z,46.56
2019-03-24T07:38:01.523Z,46.68
2019-03-24T07:40:32.186Z,45.91
2019-03-24T07:43:02.844Z,45.79
2019-03-24T07:45:33.489Z,46.08
2019-03-24T07:48:04.131Z,45.54
2019-03-24T07:50:34.789Z,45.63
2019-03-24T07:53:05.542Z,45.07
2019-03-24T07:55:36.180Z,45.35
2019-03-24T07:58:06.880Z,44.81
2019-03-24T08:00:38.331Z,44.86
2019-03-24T08:03:09.027Z,44.37
2019-03-24T08:05:39.670Z,45.03
2019-03-24T08:08:10.307Z,44.99
2019-03-24T08:10:40.971Z,45.13
2019-03-24T08:22:28.522Z,44.62
2019-03-24T09:09:04.853Z,44.61
2019-03-24T09:11:35.659Z,44.32
2019-03-24T09:47:44.777Z,43.56
2019-03-24T09:53:10.837Z,43.40
2019-03-24T09:55:41.812Z,42.82
2019-03-24T10:08:47.079Z,42.81
2019-03-24T10:15:16.816Z,42.74
2019-03-24T10:20:58.113Z,43.04
2019-03-24T10:23:28.809Z,42.74
2019-03-24T10:25:59.761Z,43.40
2019-03-24T10:28:30.610Z,43.03
2019-03-24T10:31:01.571Z,43.28
2019-03-24T10:36:57.410Z,43.90
2019-03-24T10:39:28.664Z,44.30
2019-03-24T10:41:59.383Z,45.02
2019-03-24T10:44:30.138Z,44.61
2019-03-24T10:47:01.107Z,44.25
2019-03-24T11:01:57.367Z,44.02
2019-03-24T11:25:59.925Z,43.30
2019-03-24T11:35:07.746Z,43.54
2019-03-24T11:37:38.546Z,42.59
2019-03-24T12:16:39.403Z,40.81
2019-03-24T12:19:10.077Z,41.04
2019-03-24T13:11:55.089Z,39.19
2019-03-24T13:28:33.299Z,38.66
2019-03-24T13:31:04.019Z,38.87
2019-03-24T14:56:55.016Z,40.42
2019-03-24T15:15:54.636Z,43.94
2019-03-24T16:47:20.446Z,50.00
2019-03-24T17:00:03.365Z,51.88
2019-03-24T17:02:34.098Z,51.56
2019-03-24T18:11:43.939Z,60.53
2019-03-24T18:20:50.477Z,59.82
2019-03-24T18:26:08.146Z,60.13
2019-03-24T18:28:38.859Z,60.62
2019-03-24T18:34:11.451Z,59.95
2019-03-24T18:36:42.216Z,60.39
2019-03-24T19:20:46.199Z,62.37
2019-03-24T19:23:16.956Z,62.92
2019-03-24T19:25:47.895Z,62.99
2019-03-24T19:34:53.848Z,62.34
2019-03-24T20:37:09.723Z,64.92
2019-03-24T23:22:29.376Z,65.04
2019-03-24T23:42:21.817Z,65.45
